createdAt,value
2022-12-16T00:00:09.794Z,0.50
2022-12-16T00:02:36.781Z,0.40
2022-12-16T00:05:04.236Z,0.40
2022-12-16T00:07:31.074Z,0.40
2022-12-16T00:09:57.916Z,0.50
2022-12-16T00:12:24.910Z,0.40
2022-12-16T00:14:52.288Z,0.40
2022-12-16T00:17:19.140Z,0.40
2022-12-16T00:19:45.912Z,0.40
2022-12-16T00:22:12.732Z,0.40
2022-12-16T00:24:39.515Z,0.40
2022-12-16T00:27:06.426Z,0.40
2022-12-16T00:29:33.320Z,0.40
2022-12-16T00:32:00.357Z,0.40
2022-12-16T00:34:27.289Z,0.50
2022-12-16T00:36:54.268Z,0.40
2022-12-16T00:39:22.160Z,0.40
2022-12-16T00:41:49.057Z,0.40
2022-12-16T00:44:15.949Z,0.40
2022-12-16T00:46:42.963Z,0.50
2022-12-16T00:49:09.772Z,0.50
2022-12-16T00:51:36.608Z,0.50
2022-12-16T00:54:03.505Z,0.50
2022-12-16T00:56:30.361Z,0.40
2022-12-16T00:58:57.211Z,0.50
2022-12-16T01:01:24.129Z,0.50
2022-12-16T01:03:51.054Z,0.50
2022-12-16T01:06:18.364Z,0.50
2022-12-16T01:08:51.081Z,0.50
2022-12-16T01:11:20.066Z,0.60
2022-12-16T01:13:51.982Z,0.60
2022-12-16T01:16:19.329Z,0.60
2022-12-16T01:18:46.365Z,0.60
2022-12-16T01:21:15.154Z,0.60
2022-12-16T01:23:42.175Z,0.70
2022-12-16T01:26:15.506Z,0.70
2022-12-16T01:28:42.532Z,0.70
2022-12-16T01:31:09.427Z,0.60
2022-12-16T01:33:36.529Z,0.60
2022-12-16T01:36:06.826Z,0.60
2022-12-16T01:38:34.145Z,0.70
2022-12-16T01:41:01.378Z,0.70
2022-12-16T01:43:31.298Z,0.70
2022-12-16T01:46:06.233Z,0.70
2022-12-16T01:48:51.292Z,0.70
2022-12-16T01:51:31.044Z,0.70
2022-12-16T01:54:12.583Z,0.70
2022-12-16T01:56:48.527Z,0.60
2022-12-16T01:59:17.482Z,0.60
2022-12-16T02:01:44.432Z,0.60
2022-12-16T02:04:11.443Z,0.60
2022-12-16T02:06:38.297Z,0.60
2022-12-16T02:09:08.008Z,0.60
2022-12-16T02:12:11.152Z,0.60
2022-12-16T02:15:14.551Z,0.60
2022-12-16T02:18:08.726Z,0.50
2022-12-16T02:20:50.751Z,0.50
2022-12-16T02:23:29.883Z,0.50
2022-12-16T02:26:21.577Z,0.50
2022-12-16T02:29:00.681Z,0.60
2022-12-16T02:31:35.278Z,0.60
2022-12-16T02:34:09.916Z,0.60
2022-12-16T02:37:03.375Z,0.60
2022-12-16T02:39:37.317Z,0.60
2022-12-16T02:42:31.514Z,0.60
2022-12-16T02:45:07.459Z,0.60
2022-12-16T02:47:34.367Z,0.60
2022-12-16T02:50:01.228Z,0.60
2022-12-16T02:52:32.271Z,0.50
2022-12-16T02:55:03.258Z,0.50
2022-12-16T02:57:38.901Z,0.40
2022-12-16T03:00:21.921Z,0.30
2022-12-16T03:03:06.796Z,0.20
2022-12-16T03:05:38.429Z,0.20
2022-12-16T03:08:10.955Z,0.10
2022-12-16T03:10:50.430Z,0.00
2022-12-16T03:13:20.214Z,0.00
2022-12-16T03:15:49.894Z,-0.10
2022-12-16T03:18:18.302Z,-0.10
2022-12-16T03:21:03.577Z,-0.10
2022-12-16T03:23:47.587Z,-0.20
2022-12-16T03:26:21.391Z,-0.20
2022-12-16T03:29:02.108Z,-0.20
2022-12-16T03:31:58.637Z,-0.20
2022-12-16T03:34:31.472Z,-0.30
2022-12-16T03:37:02.952Z,-0.30
2022-12-16T03:39:35.338Z,-0.40
2022-12-16T03:42:03.817Z,-0.30
2022-12-16T03:44:30.937Z,-0.30
2022-12-16T03:46:58.261Z,-0.30
2022-12-16T03:49:25.111Z,-0.30
2022-12-16T03:51:54.174Z,-0.30
2022-12-16T03:54:21.854Z,-0.30
2022-12-16T03:56:48.663Z,-0.30
2022-12-16T03:59:15.498Z,-0.40
2022-12-16T04:01:42.480Z,-0.40
2022-12-16T04:04:10.120Z,-0.40
2022-12-16T04:06:36.917Z,-0.50
2022-12-16T04:09:04.053Z,-0.60
2022-12-16T04:11:49.308Z,-0.60
2022-12-16T04:14:34.848Z,-0.60
2022-12-16T04:17:20.329Z,-0.60
2022-12-16T04:20:06.530Z,-0.60
2022-12-16T04:22:53.945Z,-0.70
2022-12-16T04:25:47.211Z,-0.80
2022-12-16T04:28:14.026Z,-0.80
2022-12-16T04:30:41.511Z,-0.80
2022-12-16T04:33:29.789Z,-0.70
2022-12-16T04:36:15.058Z,-0.80
2022-12-16T04:39:00.889Z,-0.80
2022-12-16T04:41:46.623Z,-0.70
2022-12-16T04:44:32.012Z,-0.70
2022-12-16T04:47:17.315Z,-0.80
2022-12-16T04:50:02.889Z,-0.80
2022-12-16T04:52:48.458Z,-0.80
2022-12-16T04:55:34.012Z,-0.80
2022-12-16T04:58:20.721Z,-0.80
2022-12-16T05:01:07.910Z,-0.80
2022-12-16T05:03:54.364Z,-0.80
2022-12-16T05:06:40.068Z,-0.80
2022-12-16T05:09:26.212Z,-0.80
2022-12-16T05:12:11.499Z,-0.80
2022-12-16T05:14:56.989Z,-0.80
2022-12-16T05:17:43.540Z,-0.80
2022-12-16T05:20:29.483Z,-0.80
2022-12-16T05:23:15.191Z,-0.80
2022-12-16T05:26:00.818Z,-0.90
2022-12-16T05:28:46.462Z,-0.90
2022-12-16T05:31:32.099Z,-1.00
2022-12-16T05:34:17.226Z,-1.00
2022-12-16T05:37:02.776Z,-0.90
2022-12-16T05:39:48.252Z,-0.90
2022-12-16T05:42:33.712Z,-0.90
2022-12-16T05:45:19.327Z,-0.90
2022-12-16T05:48:06.995Z,-0.90
2022-12-16T05:50:52.528Z,-0.90
2022-12-16T05:53:37.855Z,-0.90
2022-12-16T05:56:23.789Z,-0.90
2022-12-16T05:59:09.287Z,-0.90
2022-12-16T06:01:54.915Z,-1.00
2022-12-16T06:04:40.370Z,-0.90
2022-12-16T06:07:25.649Z,-1.00
2022-12-16T06:10:11.100Z,-1.00
2022-12-16T06:12:56.524Z,-1.00
2022-12-16T06:15:41.933Z,-1.00
2022-12-16T06:18:27.467Z,-1.00
2022-12-16T06:21:13.056Z,-0.90
2022-12-16T06:23:58.665Z,-0.90
2022-12-16T06:26:44.368Z,-0.90
2022-12-16T06:29:29.839Z,-0.90
2022-12-16T06:32:15.300Z,-0.90
2022-12-16T06:35:00.686Z,-0.80
2022-12-16T06:37:46.212Z,-0.80
2022-12-16T06:40:32.419Z,-0.80
2022-12-16T06:43:17.903Z,-0.80
2022-12-16T06:46:03.600Z,-0.30
2022-12-16T06:48:49.193Z,-0.10
2022-12-16T06:51:34.759Z,-0.10
2022-12-16T06:54:20.160Z,0.10
2022-12-16T06:57:05.682Z,0.00
2022-12-16T06:59:50.979Z,0.10
2022-12-16T07:02:36.592Z,0.10
2022-12-16T07:05:22.948Z,0.10
2022-12-16T07:08:09.928Z,0.20
2022-12-16T07:11:03.357Z,0.20
2022-12-16T07:13:54.478Z,0.10
2022-12-16T07:16:39.674Z,0.10
2022-12-16T07:19:25.308Z,0.00
2022-12-16T07:22:10.751Z,-0.10
2022-12-16T07:24:56.270Z,-0.20
2022-12-16T07:27:41.904Z,-0.20
2022-12-16T07:30:27.949Z,0.00
2022-12-16T07:33:13.218Z,0.00
2022-12-16T07:36:01.894Z,0.10
2022-12-16T07:38:47.096Z,0.10
2022-12-16T07:41:32.538Z,0.20
2022-12-16T07:44:18.118Z,0.10
2022-12-16T07:47:03.456Z,-0.30
2022-12-16T07:49:48.786Z,-0.40
2022-12-16T07:52:34.265Z,-0.50
2022-12-16T07:55:19.879Z,-0.50
2022-12-16T07:58:09.804Z,-0.50
2022-12-16T08:00:54.981Z,-0.50
2022-12-16T08:03:41.689Z,-0.50
2022-12-16T08:06:27.160Z,-0.50
2022-12-16T08:09:12.639Z,-0.50
2022-12-16T08:11:57.959Z,-0.50
2022-12-16T08:14:43.468Z,-0.40
2022-12-16T08:17:29.044Z,-0.40
2022-12-16T08:20:14.351Z,-0.30
2022-12-16T08:22:59.907Z,-0.20
2022-12-16T08:25:45.321Z,0.00
2022-12-16T08:28:30.654Z,0.10
2022-12-16T08:31:16.236Z,-0.10
2022-12-16T08:34:01.615Z,0.20
2022-12-16T08:36:47.033Z,0.60
2022-12-16T08:39:32.723Z,0.30
2022-12-16T08:42:18.272Z,0.20
2022-12-16T08:45:03.618Z,0.60
2022-12-16T08:47:48.831Z,0.60
2022-12-16T08:50:34.192Z,0.60
2022-12-16T08:53:19.805Z,0.90
2022-12-16T08:56:24.841Z,0.60
2022-12-16T08:59:10.162Z,0.60
2022-12-16T09:01:55.659Z,0.40
2022-12-16T09:04:41.313Z,0.40
2022-12-16T09:07:26.889Z,0.30
2022-12-16T09:10:12.412Z,0.30
2022-12-16T09:12:57.878Z,0.30
2022-12-16T09:15:43.653Z,1.00
2022-12-16T09:18:29.005Z,2.10
2022-12-16T09:21:14.273Z,2.30
2022-12-16T09:24:01.430Z,1.80
2022-12-16T09:26:48.040Z,1.50
2022-12-16T09:29:33.580Z,1.40
2022-12-16T09:32:19.080Z,1.20
2022-12-16T09:35:10.055Z,1.10
2022-12-16T09:38:04.807Z,1.20
2022-12-16T09:40:50.300Z,1.10
2022-12-16T09:44:08.204Z,1.10
2022-12-16T09:47:18.281Z,1.10
2022-12-16T09:50:11.998Z,1.10
2022-12-16T09:53:18.082Z,1.10
2022-12-16T09:56:05.288Z,1.20
2022-12-16T09:59:03.305Z,1.10
2022-12-16T10:01:55.517Z,1.00
2022-12-16T10:04:43.297Z,0.90
2022-12-16T10:07:38.374Z,1.20
2022-12-16T10:10:53.543Z,0.90
2022-12-16T10:14:15.927Z,0.80
2022-12-16T10:17:28.990Z,0.80
2022-12-16T10:20:24.860Z,0.90
2022-12-16T10:23:36.690Z,0.80
2022-12-16T10:26:33.666Z,0.70
2022-12-16T10:29:31.239Z,0.60
2022-12-16T10:32:17.084Z,0.50
2022-12-16T10:35:02.755Z,0.30
2022-12-16T10:37:54.686Z,0.40
2022-12-16T10:40:46.418Z,0.20
2022-12-16T10:43:49.680Z,0.50
2022-12-16T10:46:39.548Z,0.20
2022-12-16T10:49:27.093Z,-0.10
2022-12-16T10:52:12.624Z,-0.10
2022-12-16T10:55:03.029Z,-0.20
2022-12-16T10:57:51.578Z,-0.20
2022-12-16T11:00:58.771Z,0.00
2022-12-16T11:03:49.753Z,0.40
2022-12-16T11:06:57.026Z,0.30
2022-12-16T11:09:49.901Z,0.50
2022-12-16T11:12:48.650Z,0.40
2022-12-16T11:15:49.867Z,0.40
2022-12-16T11:18:37.531Z,0.40
2022-12-16T11:21:41.224Z,1.40
2022-12-16T11:24:26.478Z,1.20
2022-12-16T11:27:14.352Z,0.70
2022-12-16T11:30:39.315Z,0.30
2022-12-16T11:33:41.592Z,0.10
2022-12-16T11:36:39.168Z,0.20
2022-12-16T11:39:30.479Z,-0.10
2022-12-16T11:42:17.577Z,-0.20
2022-12-16T11:45:07.044Z,-0.30
2022-12-16T11:48:24.942Z,-0.30
2022-12-16T11:51:14.682Z,-0.30
2022-12-16T11:54:29.257Z,-0.30
2022-12-16T11:57:16.298Z,0.00
2022-12-16T12:00:11.680Z,0.30
2022-12-16T12:03:28.446Z,1.00
2022-12-16T12:06:38.839Z,1.00
2022-12-16T12:09:36.158Z,0.40
2022-12-16T12:12:41.935Z,0.80
2022-12-16T12:15:43.907Z,0.80
2022-12-16T12:18:53.998Z,0.70
2022-12-16T12:21:57.053Z,0.40
2022-12-16T12:24:59.443Z,0.20
2022-12-16T12:27:45.019Z,0.10
2022-12-16T12:30:38.148Z,0.00
2022-12-16T12:33:41.641Z,-0.10
2022-12-16T12:37:07.653Z,-0.20
2022-12-16T12:40:04.424Z,-0.10
2022-12-16T12:42:58.555Z,-0.10
2022-12-16T12:46:28.933Z,0.00
2022-12-16T12:49:29.712Z,0.00
2022-12-16T12:52:24.637Z,0.10
2022-12-16T12:55:11.856Z,0.10
2022-12-16T12:58:02.548Z,0.00
2022-12-16T13:00:52.221Z,-0.10
2022-12-16T13:03:51.724Z,-0.10
2022-12-16T13:06:38.335Z,-0.20
2022-12-16T13:09:44.702Z,-0.20
2022-12-16T13:12:30.257Z,-0.20
2022-12-16T13:15:41.169Z,-0.30
2022-12-16T13:18:26.752Z,-0.30
2022-12-16T13:21:18.305Z,-0.40
2022-12-16T13:24:04.835Z,-0.40
2022-12-16T13:26:52.908Z,-0.50
2022-12-16T13:29:44.448Z,-0.60
2022-12-16T13:32:35.734Z,-0.60
2022-12-16T13:35:28.478Z,-0.70
2022-12-16T13:38:20.492Z,-0.80
2022-12-16T13:41:24.054Z,-0.80
2022-12-16T13:44:16.438Z,-0.80
2022-12-16T13:47:09.136Z,-0.80
2022-12-16T13:49:54.628Z,-0.80
2022-12-16T13:52:58.546Z,-0.80
2022-12-16T13:55:55.833Z,-0.90
2022-12-16T13:59:00.663Z,-0.90
2022-12-16T14:02:15.651Z,-1.00
2022-12-16T14:05:06.855Z,-1.00
2022-12-16T14:07:56.067Z,-1.00
2022-12-16T14:10:47.866Z,-1.00
2022-12-16T14:13:56.943Z,-1.10
2022-12-16T14:17:16.384Z,-1.20
2022-12-16T14:20:04.947Z,-1.20
2022-12-16T14:23:08.399Z,-1.30
2022-12-16T14:25:54.631Z,-1.30
2022-12-16T14:28:47.806Z,-1.30
2022-12-16T14:31:52.889Z,-1.30
2022-12-16T14:34:49.952Z,-1.30
2022-12-16T14:37:41.351Z,-1.30
2022-12-16T14:40:43.815Z,-1.40
2022-12-16T14:43:33.914Z,-1.40
2022-12-16T14:46:19.714Z,-1.50
2022-12-16T14:49:09.778Z,-1.50
2022-12-16T14:51:56.897Z,-1.40
2022-12-16T14:55:01.131Z,-1.50
2022-12-16T14:57:49.033Z,-1.50
2022-12-16T15:00:39.214Z,-1.50
2022-12-16T15:03:36.973Z,-1.50
2022-12-16T15:06:26.307Z,-1.60
2022-12-16T15:09:16.312Z,-1.50
2022-12-16T15:12:03.128Z,-1.60
2022-12-16T15:14:53.752Z,-1.70
2022-12-16T15:17:50.532Z,-1.70
2022-12-16T15:20:43.977Z,-1.70
2022-12-16T15:23:43.368Z,-1.80
2022-12-16T15:26:35.770Z,-1.80
2022-12-16T15:29:21.476Z,-1.80
2022-12-16T15:32:07.052Z,-1.80
2022-12-16T15:35:04.790Z,-1.80
2022-12-16T15:38:04.198Z,-1.80
2022-12-16T15:40:52.378Z,-1.80
2022-12-16T15:43:58.261Z,-1.70
2022-12-16T15:46:47.843Z,-1.70
2022-12-16T15:50:04.516Z,-1.70
2022-12-16T15:52:57.749Z,-1.70
2022-12-16T15:55:57.150Z,-1.80
2022-12-16T15:58:50.182Z,-1.80
2022-12-16T16:01:44.460Z,-1.90
2022-12-16T16:04:49.543Z,-1.80
2022-12-16T16:07:42.307Z,-1.80
2022-12-16T16:10:42.238Z,-1.90
2022-12-16T16:13:28.493Z,-1.90
2022-12-16T16:16:14.828Z,-1.80
2022-12-16T16:19:01.244Z,-1.90
2022-12-16T16:21:47.785Z,-1.80
2022-12-16T16:24:34.196Z,-1.80
2022-12-16T16:27:21.111Z,-1.90
2022-12-16T16:30:06.292Z,-1.90
2022-12-16T16:32:51.643Z,-1.90
2022-12-16T16:35:37.042Z,-1.80
2022-12-16T16:38:22.926Z,-1.80
2022-12-16T16:41:08.591Z,-1.70
2022-12-16T16:43:54.061Z,-1.70
2022-12-16T16:46:39.638Z,-1.70
2022-12-16T16:49:37.802Z,-1.70
2022-12-16T16:52:23.202Z,-1.70
2022-12-16T16:55:09.018Z,-1.70
2022-12-16T16:57:56.257Z,-1.60
2022-12-16T17:00:42.237Z,-1.60
2022-12-16T17:03:27.831Z,-1.70
2022-12-16T17:06:13.526Z,-1.70
2022-12-16T17:08:58.731Z,-1.60
2022-12-16T17:11:45.117Z,-1.60
2022-12-16T17:14:33.004Z,-1.60
2022-12-16T17:17:18.999Z,-1.60
2022-12-16T17:20:04.785Z,-1.50
2022-12-16T17:22:49.979Z,-1.50
2022-12-16T17:25:36.122Z,-1.50
2022-12-16T17:28:21.710Z,-1.50
2022-12-16T17:31:07.082Z,-1.50
2022-12-16T17:33:52.364Z,-1.50
2022-12-16T17:36:37.955Z,-1.50
2022-12-16T17:39:23.945Z,-1.50
2022-12-16T17:42:09.436Z,-1.50
2022-12-16T17:44:55.057Z,-1.60
2022-12-16T17:47:41.910Z,-1.50
2022-12-16T17:50:28.049Z,-1.60
2022-12-16T17:53:17.156Z,-1.60
2022-12-16T17:56:02.559Z,-1.60
2022-12-16T17:58:49.984Z,-1.50
2022-12-16T18:01:35.854Z,-1.50
2022-12-16T18:04:21.950Z,-1.60
2022-12-16T18:07:07.475Z,-1.70
2022-12-16T18:09:53.496Z,-1.70
2022-12-16T18:12:39.642Z,-1.60
2022-12-16T18:15:25.497Z,-1.60
2022-12-16T18:18:11.147Z,-1.60
2022-12-16T18:20:56.364Z,-1.60
2022-12-16T18:23:41.647Z,-1.60
2022-12-16T18:26:28.403Z,-1.60
2022-12-16T18:29:14.375Z,-1.60
2022-12-16T18:32:00.105Z,-1.60
2022-12-16T18:34:45.369Z,-1.60
2022-12-16T18:37:31.481Z,-1.60
2022-12-16T18:40:16.975Z,-1.60
2022-12-16T18:43:02.356Z,-1.60
2022-12-16T18:45:48.098Z,-1.60
2022-12-16T18:48:33.232Z,-1.50
2022-12-16T18:51:19.727Z,-1.60
2022-12-16T18:54:05.359Z,-1.60
2022-12-16T18:56:50.787Z,-1.60
2022-12-16T18:59:36.368Z,-1.60
2022-12-16T19:02:21.647Z,-1.60
2022-12-16T19:05:07.113Z,-1.60
2022-12-16T19:07:52.776Z,-1.60
2022-12-16T19:10:38.214Z,-1.50
2022-12-16T19:13:23.915Z,-1.60
2022-12-16T19:16:16.780Z,-1.50
2022-12-16T19:19:02.721Z,-1.50
2022-12-16T19:21:52.279Z,-1.60
2022-12-16T19:24:42.819Z,-1.50
2022-12-16T19:27:28.323Z,-1.60
2022-12-16T19:30:13.910Z,-1.60
2022-12-16T19:32:59.518Z,-1.60
2022-12-16T19:35:44.925Z,-1.60
2022-12-16T19:38:33.299Z,-1.60
2022-12-16T19:41:18.859Z,-1.60
2022-12-16T19:44:06.457Z,-1.60
2022-12-16T19:46:56.138Z,-1.60
2022-12-16T19:49:44.438Z,-1.60
2022-12-16T19:52:30.473Z,-1.70
2022-12-16T19:58:21.718Z,-1.70
2022-12-16T20:01:07.228Z,-1.70
2022-12-16T20:03:55.193Z,-1.70
2022-12-16T20:06:42.085Z,-1.70
2022-12-16T20:09:27.788Z,-1.70
2022-12-16T20:12:13.107Z,-1.70
2022-12-16T20:14:58.368Z,-1.60
2022-12-16T20:17:43.688Z,-1.70
2022-12-16T20:20:29.055Z,-1.70
2022-12-16T20:23:14.866Z,-1.70
2022-12-16T20:26:00.599Z,-1.70
2022-12-16T20:28:45.803Z,-1.70
2022-12-16T20:31:31.408Z,-1.70
2022-12-16T20:34:17.059Z,-1.70
2022-12-16T20:37:02.642Z,-1.70
2022-12-16T20:39:56.546Z,-1.70
2022-12-16T20:42:44.433Z,-1.80
2022-12-16T20:45:30.781Z,-1.70
2022-12-16T20:48:16.422Z,-1.80
2022-12-16T20:51:02.148Z,-1.80
2022-12-16T20:53:47.741Z,-1.80
2022-12-16T20:56:32.984Z,-1.80
2022-12-16T20:59:18.461Z,-1.80
2022-12-16T21:05:09.339Z,-1.80
2022-12-16T21:07:54.650Z,-1.80
2022-12-16T21:10:42.038Z,-1.80
2022-12-16T21:13:37.167Z,-1.80
2022-12-16T21:16:24.397Z,-1.80
2022-12-16T21:19:10.528Z,-1.80
2022-12-16T21:21:56.608Z,-1.80
2022-12-16T21:24:42.098Z,-1.80
2022-12-16T21:27:27.296Z,-1.80
2022-12-16T21:30:12.783Z,-1.80
2022-12-16T21:32:58.173Z,-1.90
2022-12-16T21:35:43.700Z,-1.90
2022-12-16T21:38:30.017Z,-1.90
2022-12-16T21:41:16.198Z,-1.90
2022-12-16T21:44:01.716Z,-2.00
2022-12-16T21:46:47.351Z,-2.00
2022-12-16T21:49:33.105Z,-1.90
2022-12-16T21:52:18.314Z,-2.00
2022-12-16T21:55:03.945Z,-1.90
2022-12-16T21:57:49.545Z,-2.00
2022-12-16T22:00:34.889Z,-1.90
2022-12-16T22:03:20.076Z,-2.00
2022-12-16T22:06:05.438Z,-2.00
2022-12-16T22:08:51.788Z,-2.00
2022-12-16T22:11:37.350Z,-2.00
2022-12-16T22:14:22.985Z,-2.10
2022-12-16T22:17:08.172Z,-2.10
2022-12-16T22:19:53.664Z,-2.10
2022-12-16T22:22:41.932Z,-2.10
2022-12-16T22:25:27.586Z,-2.10
2022-12-16T22:28:12.911Z,-2.20
2022-12-16T22:30:58.562Z,-2.20
2022-12-16T22:33:43.774Z,-2.20
2022-12-16T22:36:31.204Z,-2.20
2022-12-16T22:39:16.422Z,-2.30
2022-12-16T22:42:01.946Z,-2.20
2022-12-16T22:44:47.581Z,-2.30
2022-12-16T22:47:33.049Z,-2.20
2022-12-16T22:50:18.721Z,-2.30
2022-12-16T22:53:03.932Z,-2.30
2022-12-16T22:55:49.589Z,-2.30
2022-12-16T22:58:35.234Z,-2.30
2022-12-16T23:01:20.841Z,-2.30
2022-12-16T23:04:06.142Z,-2.30
2022-12-16T23:06:51.952Z,-2.30
2022-12-16T23:09:37.285Z,-2.40
2022-12-16T23:12:23.032Z,-2.40
2022-12-16T23:15:12.009Z,-2.40
2022-12-16T23:17:57.677Z,-2.50
2022-12-16T23:20:43.158Z,-2.40
2022-12-16T23:23:28.675Z,-2.50
2022-12-16T23:26:18.022Z,-2.40
2022-12-16T23:29:03.732Z,-2.40
2022-12-16T23:31:49.298Z,-2.50
2022-12-16T23:34:34.515Z,-2.50
2022-12-16T23:37:19.977Z,-2.50
2022-12-16T23:40:05.524Z,-2.60
2022-12-16T23:42:50.842Z,-2.60
2022-12-16T23:45:37.151Z,-2.60
2022-12-16T23:48:28.122Z,-2.60
2022-12-16T23:51:13.904Z,-2.60
2022-12-16T23:53:59.812Z,-2.60
2022-12-16T23:56:45.487Z,-2.60
2022-12-16T23:59:31.176Z,-2.60
